Time;durP1;ratioP1;P1;durP2;ratioP2;P2;SDS_P1;SDS_P2;PMS_P1;PMS_P2;Temp;Humidity;BMP_temperature;BMP_pressure;BME280_temperature;BME280_humidity;BME280_pressure;Samples;Min_cycle;Max_cycle;Signal;HPM_P1;HPM_P2
2022/05/22 00:00:34;;;;;;;0.30;0.20;;;15.20;96.40;;;;;;5083746;28;20432;-85
2022/05/22 00:03:04;;;;;;;0.30;0.20;;;15.10;96.40;;;;;;5082961;28;20505;-85
2022/05/22 00:05:32;;;;;;;0.30;0.20;;;15.10;96.50;;;;;;5082894;28;21030;-86
2022/05/22 00:07:59;;;;;;;0.30;0.20;;;15.00;97.00;;;;;;5084099;28;20457;-85
2022/05/22 00:10:28;;;;;;;0.30;0.20;;;14.90;96.70;;;;;;5083241;28;20606;-85
2022/05/22 00:12:56;;;;;;;0.30;0.20;;;14.90;97.20;;;;;;5084499;28;20473;-85
2022/05/22 00:15:23;;;;;;;0.30;0.20;;;14.80;98.00;;;;;;5083520;28;20666;-86
2022/05/22 00:17:50;;;;;;;0.30;0.20;;;14.80;98.20;;;;;;5078093;28;20472;-85
2022/05/22 00:20:18;;;;;;;0.30;0.20;;;14.70;97.60;;;;;;5076496;28;20476;-85
2022/05/22 00:22:46;;;;;;;0.30;0.20;;;14.70;97.80;;;;;;5081635;28;20500;-85
2022/05/22 00:25:13;;;;;;;0.30;0.20;;;14.70;97.30;;;;;;5082508;28;20452;-85
2022/05/22 00:27:43;;;;;;;0.30;0.20;;;14.80;97.60;;;;;;5075923;28;20465;-85
2022/05/22 00:30:13;;;;;;;0.30;0.20;;;14.70;97.20;;;;;;5084925;28;20782;-85
2022/05/22 00:32:41;;;;;;;0.30;0.20;;;14.70;97.10;;;;;;5081776;28;20491;-85
2022/05/22 00:35:09;;;;;;;0.37;0.20;;;14.80;97.20;;;;;;5084616;28;20461;-85
2022/05/22 00:37:36;;;;;;;0.40;0.20;;;14.80;96.60;;;;;;5084663;28;20491;-86
2022/05/22 00:40:05;;;;;;;0.30;0.20;;;14.70;96.50;;;;;;5082282;28;20481;-85
2022/05/22 00:42:33;;;;;;;0.30;0.20;;;14.80;95.60;;;;;;5082633;28;20861;-85
2022/05/22 00:45:02;;;;;;;0.30;0.20;;;14.80;95.60;;;;;;5086363;28;20461;-85
2022/05/22 00:47:29;;;;;;;0.37;0.20;;;14.70;95.70;;;;;;5082534;28;20532;-85
2022/05/22 00:50:00;;;;;;;0.40;0.20;;;14.70;95.40;;;;;;5083048;28;21149;-85
2022/05/22 00:52:33;;;;;;;0.30;0.20;;;14.80;95.10;;;;;;5081156;28;20476;-85
2022/05/22 00:55:04;;;;;;;0.40;0.20;;;14.80;95.40;;;;;;5085661;28;20455;-85
2022/05/22 00:57:36;;;;;;;0.37;0.27;;;14.80;94.20;;;;;;5079198;28;20844;-85
2022/05/22 01:00:09;;;;;;;0.30;0.20;;;14.90;93.30;;;;;;5086601;28;20474;-84
2022/05/22 01:05:22;;;;;;;0.30;0.20;;;14.90;95.00;;;;;;5081523;28;20461;-84
2022/05/22 01:07:51;;;;;;;0.30;0.20;;;14.90;94.60;;;;;;5088002;28;20447;-85
2022/05/22 01:10:20;;;;;;;0.30;0.20;;;14.90;96.30;;;;;;5081486;28;20464;-85
2022/05/22 01:12:49;;;;;;;0.30;0.20;;;14.90;95.70;;;;;;5080251;28;20477;-85
2022/05/22 01:15:18;;;;;;;0.40;0.20;;;14.80;94.00;;;;;;5085569;28;20931;-85
2022/05/22 01:17:47;;;;;;;0.30;0.20;;;14.80;94.70;;;;;;5080455;28;20454;-85
2022/05/22 01:20:16;;;;;;;0.30;0.20;;;14.70;95.40;;;;;;5081396;28;20974;-85
2022/05/22 01:22:45;;;;;;;0.30;0.20;;;14.80;95.40;;;;;;5081963;28;20863;-84
2022/05/22 01:25:13;;;;;;;0.30;0.20;;;14.80;94.70;;;;;;5089433;28;20545;-85
2022/05/22 01:27:41;;;;;;;0.30;0.20;;;14.80;95.60;;;;;;5090775;28;20847;-84
2022/05/22 01:30:12;;;;;;;0.30;0.20;;;14.70;95.40;;;;;;5085152;28;20460;-84
2022/05/22 01:32:42;;;;;;;0.30;0.20;;;14.70;96.50;;;;;;5080392;28;20517;-85
2022/05/22 01:35:11;;;;;;;0.30;0.20;;;14.50;96.80;;;;;;5087801;28;20476;-85
2022/05/22 01:37:39;;;;;;;0.50;0.50;;;14.30;97.80;;;;;;5087097;28;20476;-85
2022/05/22 01:40:10;;;;;;;0.30;0.20;;;14.20;98.60;;;;;;5086488;28;20992;-85
2022/05/22 01:42:38;;;;;;;0.30;0.20;;;14.00;98.90;;;;;;5104153;28;20959;-85
2022/05/22 01:45:07;;;;;;;0.40;0.20;;;14.00;99.90;;;;;;5103393;28;20456;-84
2022/05/22 01:47:35;;;;;;;0.30;0.20;;;13.90;99.90;;;;;;5104271;28;20517;-84
2022/05/22 01:50:03;;;;;;;0.30;0.20;;;13.80;99.90;;;;;;5102608;28;20536;-84
2022/05/22 01:52:31;;;;;;;0.30;0.20;;;13.90;99.90;;;;;;5104689;28;20483;-84
2022/05/22 01:54:58;;;;;;;0.30;0.20;;;13.90;99.90;;;;;;5104651;28;20493;-84
2022/05/22 01:57:27;;;;;;;0.30;0.20;;;13.90;99.90;;;;;;5104822;28;20452;-82
2022/05/22 01:59:55;;;;;;;0.30;0.20;;;13.90;99.90;;;;;;5099435;28;20437;-84
2022/05/22 02:02:22;;;;;;;0.40;0.20;;;13.90;99.90;;;;;;5104433;28;20495;-84
2022/05/22 02:04:50;;;;;;;0.30;0.20;;;13.80;99.90;;;;;;5106476;28;20458;-85
2022/05/22 02:10:05;;;;;;;0.30;0.20;;;13.70;99.90;;;;;;5085555;28;20485;-85
2022/05/22 02:12:34;;;;;;;0.30;0.20;;;13.60;99.90;;;;;;5089947;28;20457;-85
2022/05/22 02:15:01;;;;;;;0.30;0.20;;;13.40;99.90;;;;;;5082071;28;20463;-85
2022/05/22 02:17:29;;;;;;;0.30;0.20;;;13.30;99.90;;;;;;5086625;28;20459;-86
2022/05/22 02:19:57;;;;;;;0.30;0.20;;;13.20;99.90;;;;;;5082216;28;20477;-85
2022/05/22 02:22:24;;;;;;;0.30;0.20;;;13.20;99.90;;;;;;5087924;28;20532;-85
2022/05/22 02:24:53;;;;;;;0.30;0.20;;;13.30;99.90;;;;;;5088318;28;20917;-84
2022/05/22 02:27:21;;;;;;;0.40;0.40;;;13.20;99.90;;;;;;5085676;28;20543;-86
2022/05/22 02:29:49;;;;;;;0.30;0.20;;;13.20;99.90;;;;;;5084817;28;20464;-85
2022/05/22 02:32:17;;;;;;;0.30;0.20;;;13.20;99.90;;;;;;5090424;28;20976;-86
2022/05/22 02:34:44;;;;;;;0.30;0.20;;;13.10;99.90;;;;;;5096727;28;20856;-85
2022/05/22 02:37:12;;;;;;;0.30;0.20;;;13.10;99.90;;;;;;5089109;28;21017;-84
2022/05/22 02:39:40;;;;;;;0.57;0.30;;;13.00;99.90;;;;;;5092485;28;20461;-85
2022/05/22 02:42:08;;;;;;;0.30;0.20;;;13.10;99.90;;;;;;5087127;28;20455;-86
2022/05/22 02:44:35;;;;;;;0.30;0.20;;;13.10;99.90;;;;;;5088291;28;20448;-85
2022/05/22 02:47:07;;;;;;;0.30;0.20;;;13.10;99.90;;;;;;5088905;28;21121;-85
2022/05/22 02:49:35;;;;;;;0.30;0.20;;;13.10;99.90;;;;;;5088791;28;20484;-85
2022/05/22 02:52:02;;;;;;;0.30;0.20;;;13.10;99.90;;;;;;5085698;28;20508;-85
2022/05/22 02:54:30;;;;;;;0.30;0.20;;;13.10;99.90;;;;;;5091613;28;20960;-85
2022/05/22 02:56:57;;;;;;;0.30;0.20;;;13.20;99.90;;;;;;5088801;28;20451;-84
2022/05/22 02:59:24;;;;;;;0.30;0.20;;;13.20;99.90;;;;;;5089629;28;20463;-86
2022/05/22 03:01:52;;;;;;;0.30;0.20;;;13.20;99.90;;;;;;5089362;28;20466;-84
2022/05/22 03:04:20;;;;;;;0.30;0.20;;;13.10;99.90;;;;;;5086466;28;20936;-85
2022/05/22 03:06:48;;;;;;;0.30;0.20;;;13.00;99.90;;;;;;5084168;28;20512;-83
2022/05/22 03:09:17;;;;;;;0.30;0.20;;;13.00;99.90;;;;;;5086235;28;20550;-86
2022/05/22 03:11:45;;;;;;;0.30;0.20;;;12.80;99.90;;;;;;5084873;28;20457;-85
2022/05/22 03:14:13;;;;;;;0.30;0.20;;;12.80;99.90;;;;;;5084345;28;20477;-85
2022/05/22 03:16:40;;;;;;;0.40;0.20;;;12.70;99.90;;;;;;5088607;28;20536;-85
2022/05/22 03:19:07;;;;;;;0.30;0.20;;;12.60;99.90;;;;;;5082417;28;20469;-86
2022/05/22 03:21:37;;;;;;;0.30;0.20;;;12.60;99.90;;;;;;5081706;28;20489;-86
2022/05/22 03:24:05;;;;;;;0.30;0.20;;;12.50;99.90;;;;;;5083738;28;20538;-85
2022/05/22 03:26:32;;;;;;;0.30;0.20;;;12.40;99.90;;;;;;5086824;28;20489;-85
2022/05/22 03:28:59;;;;;;;0.30;0.20;;;12.50;99.90;;;;;;5085806;28;20493;-85
2022/05/22 03:31:27;;;;;;;0.30;0.20;;;12.40;99.90;;;;;;5085570;28;20464;-85
2022/05/22 03:33:54;;;;;;;0.30;0.20;;;12.40;99.90;;;;;;5083793;28;20493;-85
2022/05/22 03:36:22;;;;;;;0.30;0.20;;;12.40;99.90;;;;;;5086731;28;20461;-85
2022/05/22 03:38:50;;;;;;;0.30;0.20;;;12.40;99.90;;;;;;5087485;28;20456;-85
2022/05/22 03:41:18;;;;;;;0.30;0.20;;;12.30;99.90;;;;;;5078247;28;20457;-85
2022/05/22 03:43:45;;;;;;;0.30;0.20;;;12.30;99.90;;;;;;5083712;28;20465;-86
2022/05/22 03:46:13;;;;;;;0.30;0.20;;;12.30;99.90;;;;;;5083364;28;21155;-86
2022/05/22 03:48:42;;;;;;;0.30;0.20;;;12.30;99.90;;;;;;5085885;28;20444;-85
2022/05/22 03:51:10;;;;;;;0.30;0.20;;;12.60;99.90;;;;;;5088340;28;20496;-86
2022/05/22 03:53:37;;;;;;;0.40;0.30;;;12.70;99.90;;;;;;5082929;28;21426;-84
2022/05/22 03:56:13;;;;;;;0.30;0.20;;;12.70;99.90;;;;;;5082182;28;20457;-85
2022/05/22 03:58:41;;;;;;;0.53;0.50;;;12.70;99.90;;;;;;5082926;28;20473;-85
2022/05/22 04:01:10;;;;;;;0.30;0.20;;;13.00;99.90;;;;;;5083609;28;20470;-85
2022/05/22 04:03:37;;;;;;;0.30;0.20;;;13.00;99.90;;;;;;5075779;28;20471;-85
2022/05/22 04:06:07;;;;;;;0.30;0.20;;;13.10;99.90;;;;;;5085072;28;20458;-86
2022/05/22 04:08:35;;;;;;;0.30;0.20;;;13.30;99.90;;;;;;5082358;28;20501;-85
2022/05/22 04:11:07;;;;;;;0.30;0.20;;;13.40;99.90;;;;;;5085400;28;20964;-86
2022/05/22 04:13:36;;;;;;;0.30;0.20;;;13.30;99.90;;;;;;5082190;28;20833;-85
2022/05/22 04:16:04;;;;;;;0.30;0.20;;;13.40;99.90;;;;;;5083728;28;20465;-84
2022/05/22 04:18:32;;;;;;;0.30;0.20;;;13.40;99.90;;;;;;5082608;28;21157;-86
2022/05/22 04:21:00;;;;;;;0.30;0.20;;;13.40;99.90;;;;;;5086814;28;20467;-84
2022/05/22 04:26:13;;;;;;;0.40;0.30;;;13.60;99.90;;;;;;5081486;28;20532;-84
2022/05/22 04:28:42;;;;;;;0.30;0.20;;;13.40;99.90;;;;;;5084315;28;20454;-85
2022/05/22 04:31:10;;;;;;;0.30;0.20;;;13.30;99.90;;;;;;5080775;28;21146;-84
2022/05/22 04:33:37;;;;;;;0.30;0.20;;;13.20;99.90;;;;;;5085614;28;20486;-84
2022/05/22 04:36:05;;;;;;;0.30;0.20;;;13.20;99.90;;;;;;5084797;28;20817;-85
2022/05/22 04:38:32;;;;;;;0.30;0.20;;;13.10;99.90;;;;;;5083688;28;20458;-84
2022/05/22 04:41:01;;;;;;;0.30;0.20;;;13.30;99.90;;;;;;5084879;28;20465;-84
2022/05/22 04:43:31;;;;;;;0.30;0.20;;;13.30;99.90;;;;;;5077782;28;20457;-84
2022/05/22 04:46:00;;;;;;;0.30;0.20;;;13.40;99.90;;;;;;5084461;28;20470;-85
2022/05/22 04:48:29;;;;;;;0.30;0.20;;;13.50;99.90;;;;;;5080702;28;20464;-84
2022/05/22 04:50:56;;;;;;;0.30;0.20;;;13.70;99.90;;;;;;5081646;28;20536;-85
2022/05/22 04:53:25;;;;;;;0.30;0.20;;;13.80;99.90;;;;;;5081565;28;20457;-84
2022/05/22 04:55:53;;;;;;;0.30;0.20;;;14.00;99.90;;;;;;5085192;28;20467;-84
2022/05/22 04:58:21;;;;;;;0.30;0.20;;;14.00;99.90;;;;;;5077847;28;20512;-86
2022/05/22 05:00:49;;;;;;;0.30;0.20;;;14.00;99.90;;;;;;5083855;28;20464;-84
2022/05/22 05:03:18;;;;;;;0.30;0.20;;;13.90;99.90;;;;;;5090677;28;20446;-85
2022/05/22 05:05:54;;;;;;;0.30;0.20;;;13.80;99.90;;;;;;5088705;28;20457;-86
2022/05/22 05:08:21;;;;;;;0.30;0.20;;;13.80;99.90;;;;;;5089200;28;20523;-85
2022/05/22 05:10:48;;;;;;;0.63;0.30;;;13.80;99.90;;;;;;5087092;28;20455;-86
2022/05/22 05:13:20;;;;;;;0.30;0.20;;;14.10;99.90;;;;;;5088657;28;20972;-86
2022/05/22 05:15:57;;;;;;;0.30;0.20;;;14.50;99.90;;;;;;5088598;28;20474;-86
2022/05/22 05:18:26;;;;;;;0.30;0.20;;;14.50;99.90;;;;;;5089550;28;20519;-86
2022/05/22 05:20:54;;;;;;;0.30;0.20;;;14.60;99.90;;;;;;5086214;28;20903;-87
2022/05/22 05:23:22;;;;;;;0.30;0.20;;;14.50;99.90;;;;;;5090928;28;20453;-86
2022/05/22 05:25:50;;;;;;;0.33;0.20;;;14.60;99.90;;;;;;5083237;28;20497;-86
2022/05/22 05:28:17;;;;;;;0.30;0.20;;;14.60;99.90;;;;;;5084108;28;20458;-86
2022/05/22 05:30:45;;;;;;;0.30;0.20;;;14.60;99.90;;;;;;5089924;28;20468;-86
2022/05/22 05:33:12;;;;;;;0.40;0.30;;;14.50;99.90;;;;;;5091903;28;20483;-88
2022/05/22 05:35:44;;;;;;;0.30;0.20;;;14.70;99.90;;;;;;5084319;28;20484;-88
2022/05/22 05:38:11;;;;;;;0.30;0.20;;;14.80;99.90;;;;;;5087476;28;20460;-86
2022/05/22 05:40:39;;;;;;;0.40;0.30;;;14.80;99.90;;;;;;5079789;28;20456;-87
2022/05/22 05:43:07;;;;;;;0.30;0.20;;;15.00;99.90;;;;;;5077784;28;20475;-87
2022/05/22 05:45:35;;;;;;;0.30;0.20;;;15.10;99.90;;;;;;5082296;28;21028;-87
2022/05/22 05:48:04;;;;;;;0.30;0.20;;;15.30;99.90;;;;;;5086591;28;20477;-87
2022/05/22 05:50:31;;;;;;;0.30;0.20;;;15.30;99.90;;;;;;5082764;28;20546;-87
2022/05/22 05:53:01;;;;;;;0.40;0.30;;;15.60;99.90;;;;;;5079861;28;21910;-85
2022/05/22 05:55:30;;;;;;;0.50;0.40;;;15.90;99.90;;;;;;5079228;28;20564;-91
2022/05/22 05:57:57;;;;;;;0.30;0.20;;;16.00;99.90;;;;;;5084082;28;20484;-85
2022/05/22 06:00:26;;;;;;;0.30;0.20;;;16.20;99.10;;;;;;5084795;28;20953;-87
2022/05/22 06:02:53;;;;;;;0.30;0.20;;;16.10;98.20;;;;;;5075323;28;20449;-86
2022/05/22 06:05:21;;;;;;;0.40;0.30;;;16.10;97.80;;;;;;5077397;28;20464;-87
2022/05/22 06:07:50;;;;;;;0.30;0.20;;;16.20;97.90;;;;;;5073004;28;20469;-87
2022/05/22 06:10:21;;;;;;;0.30;0.20;;;16.30;97.30;;;;;;5071764;28;20478;-88
2022/05/22 06:12:48;;;;;;;0.30;0.20;;;16.40;98.70;;;;;;5072131;28;20484;-87
2022/05/22 06:15:16;;;;;;;0.40;0.20;;;16.40;96.50;;;;;;5073258;28;20514;-88
2022/05/22 06:17:46;;;;;;;0.90;0.40;;;16.40;96.80;;;;;;5076755;28;20466;-86
2022/05/22 06:20:16;;;;;;;0.30;0.20;;;16.60;96.70;;;;;;5075041;28;20462;-87
2022/05/22 06:22:44;;;;;;;0.30;0.20;;;16.40;96.70;;;;;;5079691;28;20487;-87
2022/05/22 06:25:14;;;;;;;0.30;0.20;;;16.60;96.20;;;;;;5078608;28;20465;-87
2022/05/22 06:27:44;;;;;;;0.30;0.20;;;16.80;96.20;;;;;;5073681;28;20550;-87
2022/05/22 06:30:18;;;;;;;0.30;0.20;;;17.00;96.50;;;;;;5075758;28;20558;-87
2022/05/22 06:32:45;;;;;;;0.40;0.20;;;17.00;95.50;;;;;;5084917;28;20474;-87
2022/05/22 06:35:15;;;;;;;0.40;0.20;;;16.90;95.40;;;;;;5075427;28;20489;-87
2022/05/22 06:37:42;;;;;;;0.40;0.20;;;17.10;94.40;;;;;;5077066;28;20898;-88
2022/05/22 06:40:10;;;;;;;0.30;0.30;;;17.20;95.60;;;;;;5075214;28;20452;-88
2022/05/22 06:42:39;;;;;;;0.40;0.20;;;17.30;95.00;;;;;;5075052;28;20451;-87
2022/05/22 06:45:11;;;;;;;0.40;0.20;;;17.30;94.00;;;;;;5070343;28;20470;-87
2022/05/22 06:47:39;;;;;;;0.37;0.20;;;17.40;94.40;;;;;;5075200;28;20485;-87
2022/05/22 06:50:10;;;;;;;0.40;0.20;;;17.40;93.40;;;;;;5078359;28;20463;-87
2022/05/22 06:52:38;;;;;;;0.73;0.40;;;17.60;93.70;;;;;;5082525;28;20459;-89
2022/05/22 06:55:07;;;;;;;0.40;0.20;;;17.70;94.70;;;;;;5072174;28;20960;-87
2022/05/22 06:57:34;;;;;;;0.40;0.20;;;18.00;93.30;;;;;;5086127;28;20459;-88
2022/05/22 07:00:03;;;;;;;0.40;0.30;;;17.70;94.00;;;;;;5077619;28;21143;-89
2022/05/22 07:02:31;;;;;;;0.40;0.20;;;17.70;93.60;;;;;;5077814;28;20467;-89
2022/05/22 07:05:00;;;;;;;0.40;0.20;;;17.80;93.20;;;;;;5075683;28;21024;-87
2022/05/22 07:07:28;;;;;;;0.30;0.20;;;18.00;92.70;;;;;;5077276;28;20455;-88
2022/05/22 07:09:56;;;;;;;0.40;0.20;;;18.00;92.70;;;;;;5078121;28;20466;-87
2022/05/22 07:12:24;;;;;;;0.37;0.30;;;18.20;92.00;;;;;;5076787;28;20452;-87
2022/05/22 07:14:57;;;;;;;0.50;0.30;;;18.40;92.10;;;;;;5072631;28;21070;-87
2022/05/22 07:17:25;;;;;;;0.40;0.20;;;18.50;91.40;;;;;;5072874;28;20490;-87
2022/05/22 07:19:56;;;;;;;0.40;0.20;;;18.50;92.50;;;;;;5074624;28;20703;-88
2022/05/22 07:22:30;;;;;;;0.40;0.20;;;18.50;90.90;;;;;;5076420;28;20493;-88
2022/05/22 07:24:57;;;;;;;1.47;0.97;;;18.60;90.90;;;;;;5078097;28;20454;-89
2022/05/22 07:27:26;;;;;;;0.40;0.20;;;18.40;89.20;;;;;;5078479;28;20459;-90
2022/05/22 07:29:54;;;;;;;1.13;0.97;;;18.90;90.70;;;;;;5074607;28;20474;-87
2022/05/22 07:32:21;;;;;;;0.50;0.50;;;19.20;89.20;;;;;;5073989;28;20512;-86
2022/05/22 07:34:50;;;;;;;0.40;0.20;;;19.50;87.60;;;;;;5071255;28;20480;-88
2022/05/22 07:37:19;;;;;;;0.40;0.20;;;19.50;85.60;;;;;;5081772;28;20464;-87
2022/05/22 07:39:46;;;;;;;0.40;0.20;;;19.40;84.50;;;;;;5089936;28;20450;-88
2022/05/22 07:42:14;;;;;;;0.40;0.20;;;19.40;82.90;;;;;;5081603;28;20460;-87
2022/05/22 07:44:41;;;;;;;0.40;0.20;;;19.50;85.20;;;;;;5080123;28;20569;-87
2022/05/22 07:47:09;;;;;;;0.40;0.20;;;19.60;85.10;;;;;;5079077;28;20469;-87
2022/05/22 07:52:26;;;;;;;0.40;0.20;;;19.60;78.70;;;;;;5081197;28;20449;-85
2022/05/22 07:54:57;;;;;;;0.40;0.20;;;19.40;75.70;;;;;;5084104;28;20535;-87
2022/05/22 07:57:25;;;;;;;0.40;0.20;;;19.00;77.00;;;;;;5084875;28;20487;-86
2022/05/22 07:59:52;;;;;;;0.40;0.30;;;19.00;80.40;;;;;;5085366;28;20456;-87
2022/05/22 08:02:19;;;;;;;0.40;0.20;;;19.10;75.20;;;;;;5086477;28;20473;-87
2022/05/22 08:04:47;;;;;;;0.40;0.30;;;18.90;77.90;;;;;;5080757;28;20470;-88
2022/05/22 08:07:14;;;;;;;0.40;0.20;;;19.10;81.00;;;;;;5082786;28;20449;-87
2022/05/22 08:09:44;;;;;;;0.40;0.20;;;19.40;77.90;;;;;;5088405;28;20479;-87
2022/05/22 08:12:12;;;;;;;0.40;0.20;;;19.80;79.40;;;;;;5077720;28;20512;-85
2022/05/22 08:14:40;;;;;;;0.40;0.20;;;19.40;79.10;;;;;;5076807;28;20482;-88
2022/05/22 08:17:07;;;;;;;0.40;0.20;;;19.30;80.50;;;;;;5077116;28;20472;-86
2022/05/22 08:19:35;;;;;;;0.40;0.20;;;19.30;83.00;;;;;;5084741;28;21079;-89
2022/05/22 08:22:04;;;;;;;0.43;0.37;;;19.30;77.70;;;;;;5077740;28;20485;-86
2022/05/22 08:24:31;;;;;;;0.40;0.20;;;19.50;77.20;;;;;;5083097;28;20939;-90
2022/05/22 08:27:00;;;;;;;0.40;0.20;;;19.60;79.30;;;;;;5083981;28;20464;-88
2022/05/22 08:29:27;;;;;;;0.40;0.30;;;19.80;84.10;;;;;;5080624;28;20473;-85
2022/05/22 08:31:57;;;;;;;0.40;0.30;;;19.80;79.80;;;;;;5074508;28;20457;-87
2022/05/22 08:34:24;;;;;;;0.40;0.37;;;19.70;78.90;;;;;;5072231;28;20454;-86
2022/05/22 08:36:52;;;;;;;0.40;0.20;;;20.00;86.40;;;;;;5077171;28;20545;-87
2022/05/22 08:39:20;;;;;;;0.40;0.30;;;20.00;78.70;;;;;;5083462;28;20453;-87
2022/05/22 08:41:50;;;;;;;0.40;0.37;;;19.80;80.80;;;;;;5085649;28;20508;-87
2022/05/22 08:44:22;;;;;;;0.40;0.20;;;19.80;79.40;;;;;;5082329;28;20451;-88
2022/05/22 08:46:58;;;;;;;0.40;0.20;;;20.00;82.40;;;;;;5083181;28;21170;-88
2022/05/22 08:49:31;;;;;;;0.50;0.50;;;19.80;81.70;;;;;;5073824;28;20531;-87
2022/05/22 08:52:10;;;;;;;0.40;0.20;;;20.00;83.80;;;;;;5075446;28;20440;-88
2022/05/22 08:54:41;;;;;;;0.40;0.20;;;20.20;87.70;;;;;;5080929;28;20498;-89
2022/05/22 09:00:08;;;;;;;0.40;0.20;;;20.20;79.30;;;;;;5084852;28;20495;-87
2022/05/22 09:02:39;;;;;;;0.40;0.20;;;20.30;79.30;;;;;;5083826;28;20810;-87
2022/05/22 09:05:09;;;;;;;0.40;0.20;;;20.30;80.00;;;;;;5086185;28;20464;-88
2022/05/22 09:07:48;;;;;;;0.40;0.30;;;20.40;78.10;;;;;;5081780;28;20478;-88
2022/05/22 09:10:20;;;;;;;0.40;0.30;;;20.40;82.40;;;;;;5077717;28;20459;-88
2022/05/22 09:13:00;;;;;;;0.40;0.33;;;20.30;79.60;;;;;;5078976;28;20463;-89
2022/05/22 09:15:38;;;;;;;0.40;0.20;;;20.40;79.30;;;;;;5081176;28;21173;-88
2022/05/22 09:18:10;;;;;;;0.40;0.20;;;20.80;76.10;;;;;;5082733;28;20552;-88
2022/05/22 09:20:50;;;;;;;0.40;0.20;;;20.80;76.30;;;;;;5083898;28;21171;-88
2022/05/22 09:23:39;;;;;;;0.40;0.27;;;21.00;79.10;;;;;;5094781;28;20812;-88
2022/05/22 09:26:10;;;;;;;0.40;0.30;;;21.00;79.40;;;;;;5085103;28;20448;-89
2022/05/22 09:28:51;;;;;;;0.40;0.27;;;21.00;73.60;;;;;;5076982;28;20571;-89
2022/05/22 09:31:30;;;;;;;0.40;0.20;;;21.10;78.00;;;;;;5080374;28;20465;-89
2022/05/22 09:34:08;;;;;;;0.50;0.40;;;20.70;73.00;;;;;;5082666;28;20467;-88
2022/05/22 09:36:43;;;;;;;0.40;0.20;;;20.80;74.10;;;;;;5077417;28;21031;-89
2022/05/22 09:39:26;;;;;;;0.40;0.20;;;20.90;79.40;;;;;;5090316;28;20508;-88
2022/05/22 09:42:06;;;;;;;0.40;0.20;;;20.80;71.80;;;;;;5076941;28;20457;-88
2022/05/22 09:44:50;;;;;;;0.40;0.20;;;20.90;79.30;;;;;;5092801;28;20455;-86
2022/05/22 09:47:36;;;;;;;0.40;0.20;;;21.10;70.70;;;;;;5076977;28;20453;-85
2022/05/22 09:50:15;;;;;;;0.40;0.20;;;21.20;76.60;;;;;;5085470;28;20477;-89
2022/05/22 09:52:57;;;;;;;0.40;0.20;;;21.10;70.10;;;;;;5086578;28;20452;-88
2022/05/22 09:55:33;;;;;;;0.40;0.20;;;21.00;72.40;;;;;;5077643;28;20577;-87
2022/05/22 09:58:32;;;;;;;0.40;0.20;;;21.20;75.20;;;;;;5085037;28;20534;-86
2022/05/22 10:01:07;;;;;;;0.40;0.20;;;21.40;72.90;;;;;;5066012;28;20454;-86
2022/05/22 10:03:47;;;;;;;0.40;0.20;;;21.90;78.40;;;;;;5077908;28;21256;-85
2022/05/22 10:06:24;;;;;;;0.40;0.20;;;21.90;74.50;;;;;;5080692;28;20497;-86
2022/05/22 10:09:02;;;;;;;0.40;0.20;;;21.60;72.90;;;;;;5084313;28;20449;-86
2022/05/22 10:11:38;;;;;;;0.40;0.20;;;21.40;64.80;;;;;;5083517;28;20951;-87
2022/05/22 10:14:22;;;;;;;0.40;0.20;;;21.30;70.20;;;;;;5085709;28;20470;-87
2022/05/22 10:17:03;;;;;;;0.40;0.20;;;21.30;68.80;;;;;;5078679;28;21039;-87
2022/05/22 10:19:40;;;;;;;0.40;0.30;;;21.30;68.00;;;;;;5081528;28;20461;-88
2022/05/22 10:22:14;;;;;;;0.40;0.27;;;21.20;67.50;;;;;;5077426;28;20893;-87
2022/05/22 10:25:01;;;;;;;0.40;0.20;;;21.50;66.60;;;;;;5084745;28;21347;-87
2022/05/22 10:27:59;;;;;;;0.40;0.20;;;21.40;64.00;;;;;;5080645;28;20470;-87
2022/05/22 10:30:32;;;;;;;0.40;0.20;;;21.30;66.10;;;;;;5086357;28;20452;-87
2022/05/22 10:33:06;;;;;;;0.40;0.20;;;21.60;67.90;;;;;;5082309;28;20470;-88
2022/05/22 10:35:44;;;;;;;0.40;0.30;;;21.40;63.90;;;;;;5084567;28;20477;-87
2022/05/22 10:38:18;;;;;;;0.40;0.20;;;21.60;63.80;;;;;;5087982;28;20454;-89
2022/05/22 10:43:36;;;;;;;0.40;0.20;;;21.70;61.70;;;;;;5083172;28;20459;-87
2022/05/22 10:46:04;;;;;;;0.40;0.20;;;22.00;64.40;;;;;;5083565;28;20461;-87
2022/05/22 10:48:35;;;;;;;0.40;0.20;;;22.20;68.00;;;;;;5085389;28;20447;-87
2022/05/22 10:51:07;;;;;;;0.40;0.20;;;22.40;67.80;;;;;;5083408;28;20455;-88
2022/05/22 10:53:47;;;;;;;0.40;0.30;;;22.40;64.80;;;;;;5080682;28;20473;-87
2022/05/22 10:56:21;;;;;;;0.40;0.30;;;22.50;64.70;;;;;;5084126;28;20483;-87
2022/05/22 10:58:54;;;;;;;0.40;0.20;;;22.40;66.40;;;;;;5100969;28;20467;-88
2022/05/22 11:01:23;;;;;;;0.40;0.20;;;22.40;63.70;;;;;;5108807;28;20473;-88
2022/05/22 11:04:03;;;;;;;0.40;0.20;;;22.50;62.90;;;;;;5107712;28;20625;-85
2022/05/22 11:06:32;;;;;;;0.40;0.30;;;22.70;63.50;;;;;;5110646;28;20685;-86
2022/05/22 11:09:00;;;;;;;0.40;0.20;;;22.50;60.10;;;;;;5109890;28;20446;-90
2022/05/22 11:11:30;;;;;;;0.40;0.20;;;22.10;63.10;;;;;;5106228;28;20471;-86
2022/05/22 11:14:08;;;;;;;0.40;0.30;;;22.20;65.00;;;;;;5104413;28;20450;-87
2022/05/22 11:16:36;;;;;;;0.40;0.20;;;22.60;64.90;;;;;;5110025;28;20477;-87
2022/05/22 11:19:10;;;;;;;0.40;0.20;;;22.50;63.00;;;;;;5091168;28;20456;-89
2022/05/22 11:21:55;;;;;;;0.40;0.20;;;22.80;67.40;;;;;;5087101;28;20826;-87
2022/05/22 11:24:31;;;;;;;0.40;0.20;;;22.50;64.10;;;;;;5086057;28;20465;-88
2022/05/22 11:27:08;;;;;;;0.40;0.30;;;22.30;59.60;;;;;;5086384;28;20459;-89
2022/05/22 11:30:14;;;;;;;0.40;0.20;;;22.40;60.30;;;;;;5089797;28;20533;-88
2022/05/22 11:33:10;;;;;;;0.50;0.30;;;22.50;65.60;;;;;;5073160;28;20465;-89
2022/05/22 11:35:46;;;;;;;0.40;0.20;;;22.30;64.20;;;;;;5087273;28;20935;-87
2022/05/22 11:38:36;;;;;;;0.40;0.20;;;22.20;61.20;;;;;;5096357;28;22245;-88
2022/05/22 11:41:13;;;;;;;0.40;0.20;;;22.10;61.20;;;;;;5083554;28;20446;-87
2022/05/22 11:43:59;;;;;;;0.40;0.23;;;22.30;69.00;;;;;;5088963;28;20462;-87
2022/05/22 11:46:40;;;;;;;0.40;0.20;;;22.40;68.20;;;;;;5082524;28;20799;-88
2022/05/22 11:49:25;;;;;;;0.40;0.20;;;22.60;68.00;;;;;;5087016;28;20451;-87
2022/05/22 11:52:10;;;;;;;0.50;0.30;;;22.60;61.00;;;;;;5085559;28;20458;-89
2022/05/22 11:54:53;;;;;;;0.40;0.20;;;22.70;59.50;;;;;;5082861;28;20454;-85
2022/05/22 11:57:31;;;;;;;0.40;0.20;;;22.80;61.10;;;;;;5088325;28;20516;-86
2022/05/22 12:00:14;;;;;;;0.40;0.20;;;22.90;63.30;;;;;;5086480;28;20497;-86
2022/05/22 12:03:13;;;;;;;0.40;0.20;;;22.70;61.50;;;;;;5088782;28;20438;-85
2022/05/22 12:05:56;;;;;;;0.40;0.20;;;23.00;59.30;;;;;;5081991;28;21107;-86
2022/05/22 12:08:41;;;;;;;0.40;0.20;;;22.80;62.70;;;;;;5087830;28;20486;-87
2022/05/22 12:11:14;;;;;;;0.40;0.20;;;22.80;58.40;;;;;;5091259;28;20470;-86
2022/05/22 12:13:48;;;;;;;0.40;0.20;;;22.90;61.00;;;;;;5087160;28;20944;-86
2022/05/22 12:16:21;;;;;;;0.40;0.20;;;22.70;58.20;;;;;;5087289;28;20482;-86
2022/05/22 12:19:06;;;;;;;0.40;0.20;;;22.70;58.10;;;;;;5087984;28;20802;-85
2022/05/22 12:21:48;;;;;;;0.40;0.20;;;22.90;58.80;;;;;;5087341;28;20495;-85
2022/05/22 12:24:24;;;;;;;0.40;0.20;;;22.80;56.00;;;;;;5082866;28;20463;-86
2022/05/22 12:26:54;;;;;;;0.40;0.20;;;23.00;58.00;;;;;;5092657;28;20545;-85
2022/05/22 12:29:27;;;;;;;0.40;0.20;;;23.10;63.50;;;;;;5092968;28;20529;-85
2022/05/22 12:31:57;;;;;;;0.40;0.20;;;23.00;59.80;;;;;;5085625;28;20525;-85
2022/05/22 12:34:35;;;;;;;0.40;0.30;;;22.80;58.30;;;;;;5085694;28;20481;-84
2022/05/22 12:37:04;;;;;;;0.40;0.20;;;22.90;58.90;;;;;;5076770;28;21018;-85
2022/05/22 12:39:42;;;;;;;0.40;0.20;;;23.10;57.90;;;;;;5081446;28;20968;-85
2022/05/22 12:42:17;;;;;;;0.40;0.20;;;23.10;57.40;;;;;;5087639;28;20455;-85
2022/05/22 12:44:44;;;;;;;0.40;0.20;;;22.80;59.10;;;;;;5077618;28;20461;-84
2022/05/22 12:47:15;;;;;;;0.50;0.40;;;23.20;64.40;;;;;;5085794;28;20923;-85
2022/05/22 12:49:54;;;;;;;0.47;0.30;;;23.20;63.50;;;;;;5082436;28;20482;-87
2022/05/22 12:52:32;;;;;;;0.40;0.20;;;23.20;56.10;;;;;;5083765;28;20456;-87
2022/05/22 12:55:02;;;;;;;0.40;0.20;;;23.30;58.10;;;;;;5084086;28;20489;-87
2022/05/22 12:57:32;;;;;;;0.40;0.30;;;23.20;60.70;;;;;;5081667;28;20479;-86
2022/05/22 13:00:03;;;;;;;0.40;0.20;;;22.90;55.00;;;;;;5076325;28;20462;-85
2022/05/22 13:02:38;;;;;;;0.40;0.20;;;23.00;60.70;;;;;;5080780;28;20450;-87
2022/05/22 13:05:18;;;;;;;0.40;0.20;;;23.10;58.30;;;;;;5082312;28;20486;-87
2022/05/22 13:07:49;;;;;;;0.40;0.20;;;23.30;58.80;;;;;;5082382;28;20461;-89
2022/05/22 13:10:25;;;;;;;0.40;0.20;;;23.40;59.60;;;;;;5082596;28;20836;-86
2022/05/22 13:13:00;;;;;;;0.40;0.20;;;23.30;58.10;;;;;;5078046;28;20854;-85
2022/05/22 13:15:31;;;;;;;0.40;0.20;;;23.30;59.00;;;;;;5077484;28;20473;-87
2022/05/22 13:18:12;;;;;;;0.40;0.20;;;23.10;55.70;;;;;;5082480;28;20486;-87
2022/05/22 13:20:50;;;;;;;0.40;0.20;;;23.10;56.20;;;;;;5081499;28;20483;-88
2022/05/22 13:23:33;;;;;;;0.40;0.20;;;23.10;58.10;;;;;;5077474;28;20955;-90
2022/05/22 13:26:04;;;;;;;0.40;0.20;;;23.30;57.60;;;;;;5084132;28;20480;-87